Time;durP1;ratioP1;P1;durP2;ratioP2;P2;SDS_P1;SDS_P2;PMS_P1;PMS_P2;Temp;Humidity;BMP_temperature;BMP_pressure;BME280_temperature;BME280_humidity;BME280_pressure;Samples;Min_cycle;Max_cycle;Signal;HPM_P1;HPM_P2
2021/08/04 00:01:50;;;;;;;13.18;5.72;;;;;;;26.72;40.08;99268.81;5073431;28;20032;-73
2021/08/04 00:04:16;;;;;;;6.15;5.00;;;;;;;26.43;40.66;99270.41;5071890;28;20034;-75
2021/08/04 00:06:42;;;;;;;7.88;5.63;;;;;;;26.43;40.79;99264.69;5073497;28;20375;-75
2021/08/04 00:09:07;;;;;;;12.00;5.15;;;;;;;26.56;40.77;99261.88;5072889;28;20091;-75
2021/08/04 00:11:33;;;;;;;7.25;5.40;;;;;;;26.47;40.71;99248.19;5071573;28;20575;-73
2021/08/04 00:13:59;;;;;;;12.10;5.72;;;;;;;26.56;40.63;99259.00;5071471;28;20451;-75
2021/08/04 00:16:25;;;;;;;9.02;6.30;;;;;;;26.71;40.32;99264.34;5073152;28;20111;-75
2021/08/04 00:18:50;;;;;;;9.43;4.88;;;;;;;26.70;40.15;99269.28;5072923;28;20036;-75
2021/08/04 00:21:16;;;;;;;11.02;5.47;;;;;;;26.63;40.19;99272.34;5073067;28;20602;-73
2021/08/04 00:23:41;;;;;;;10.95;5.53;;;;;;;26.63;39.39;99270.31;5071548;28;20063;-73
2021/08/04 00:26:07;;;;;;;11.10;6.43;;;;;;;26.36;39.59;99270.59;5071213;28;20056;-73
2021/08/04 00:28:32;;;;;;;9.75;5.22;;;;;;;26.37;39.27;99265.66;5071431;28;20028;-73
2021/08/04 00:30:58;;;;;;;11.65;6.07;;;;;;;26.09;39.99;99260.19;5071190;28;20482;-75
2021/08/04 00:33:23;;;;;;;9.40;5.97;;;;;;;26.14;40.01;99256.78;5072483;28;20031;-73
2021/08/04 00:35:49;;;;;;;14.98;6.13;;;;;;;26.23;39.85;99261.91;5072788;28;20024;-73
2021/08/04 00:38:14;;;;;;;9.50;5.32;;;;;;;26.16;39.82;99267.81;5072079;28;20067;-75
2021/08/04 00:40:42;;;;;;;11.55;5.55;;;;;;;26.17;39.93;99278.81;5072658;28;20375;-75
2021/08/04 00:43:07;;;;;;;10.02;5.40;;;;;;;26.17;39.51;99270.19;5072196;28;20047;-75
2021/08/04 00:45:34;;;;;;;12.65;6.45;;;;;;;26.02;40.00;99275.50;5072170;28;20028;-75
2021/08/04 00:48:00;;;;;;;16.27;6.18;;;;;;;25.74;40.23;99265.53;5070869;28;20517;-73
2021/08/04 00:50:26;;;;;;;8.60;5.88;;;;;;;25.65;40.53;99269.78;5070713;28;20032;-75
2021/08/04 00:52:52;;;;;;;12.63;5.95;;;;;;;25.57;40.82;99268.34;5070871;28;20063;-73
2021/08/04 00:55:17;;;;;;;13.70;5.47;;;;;;;25.54;41.10;99274.97;5071918;28;20024;-75
2021/08/04 00:57:43;;;;;;;11.05;6.65;;;;;;;25.70;40.81;99273.38;5071401;28;20079;-75
2021/08/04 01:00:10;;;;;;;9.20;5.00;;;;;;;25.60;40.82;99273.19;5070513;28;20078;-75
2021/08/04 01:02:40;;;;;;;12.73;6.13;;;;;;;25.61;40.64;99265.41;5072136;28;20037;-75
2021/08/04 01:05:40;;;;;;;9.90;5.55;;;;;;;25.58;41.39;99269.97;5071925;28;20124;-75
2021/08/04 01:08:14;;;;;;;9.32;5.95;;;;;;;25.64;41.26;99282.50;5053316;28;20135;-73
2021/08/04 01:10:43;;;;;;;13.63;5.82;;;;;;;25.31;41.36;99288.09;5071888;28;20433;-73
2021/08/04 01:13:21;;;;;;;45.60;7.72;;;;;;;24.89;42.48;99288.50;5071747;28;20025;-75
2021/08/04 01:15:50;;;;;;;9.95;6.53;;;;;;;24.87;42.45;99275.91;5072019;28;20111;-73
2021/08/04 01:18:23;;;;;;;10.68;5.82;;;;;;;25.05;42.03;99278.44;5071775;28;20029;-73
2021/08/04 01:20:49;;;;;;;10.40;6.55;;;;;;;25.09;41.94;99294.25;5071470;28;20110;-75
2021/08/04 01:23:30;;;;;;;11.93;6.18;;;;;;;24.73;42.33;99309.22;5071652;28;20032;-75
2021/08/04 01:26:06;;;;;;;12.02;7.35;;;;;;;24.88;40.72;99297.56;5068149;28;20033;-73
2021/08/04 01:28:47;;;;;;;8.02;5.97;;;;;;;24.92;40.55;99281.13;5070638;28;20031;-73
2021/08/04 01:31:17;;;;;;;12.93;6.03;;;;;;;25.01;40.28;99286.25;5071391;28;20040;-75
2021/08/04 01:33:49;;;;;;;13.55;6.47;;;;;;;25.02;40.28;99293.59;5057743;28;20459;-75
2021/08/04 01:36:16;;;;;;;11.35;6.75;;;;;;;24.84;40.79;99302.50;5066016;28;20048;-75
2021/08/04 01:38:42;;;;;;;10.10;5.75;;;;;;;24.73;41.17;99292.06;5071164;28;20444;-75
2021/08/04 01:41:09;;;;;;;13.68;6.10;;;;;;;24.48;41.38;99287.59;5071538;28;20059;-75
2021/08/04 01:43:37;;;;;;;9.43;6.25;;;;;;;24.45;41.29;99299.91;5071035;28;20035;-75
2021/08/04 01:46:04;;;;;;;10.18;7.22;;;;;;;24.39;41.34;99310.22;5067113;28;20029;-73
2021/08/04 01:48:30;;;;;;;12.88;6.28;;;;;;;24.34;41.65;99317.25;5070740;28;20037;-75
2021/08/04 01:51:00;;;;;;;13.77;6.43;;;;;;;24.24;41.30;99329.66;5070779;28;20028;-74
2021/08/04 01:53:27;;;;;;;12.02;6.65;;;;;;;24.12;41.74;99322.47;5061943;28;20111;-73
2021/08/04 01:55:52;;;;;;;11.98;6.63;;;;;;;24.13;41.63;99329.81;5068276;28;20034;-73
2021/08/04 01:58:18;;;;;;;10.35;6.25;;;;;;;23.92;41.73;99328.88;5070482;28;20036;-75
2021/08/04 02:00:44;;;;;;;8.27;5.97;;;;;;;24.02;41.65;99334.88;5068889;28;20410;-72
2021/08/04 02:03:09;;;;;;;20.38;8.07;;;;;;;23.91;41.66;99335.84;5069393;28;20055;-73
2021/08/04 02:05:35;;;;;;;13.63;6.85;;;;;;;23.86;41.56;99349.78;5065905;28;20025;-73
2021/08/04 02:08:27;;;;;;;11.48;6.35;;;;;;;23.87;41.60;99340.78;5063029;28;20043;-75
2021/08/04 02:11:11;;;;;;;13.40;6.38;;;;;;;23.63;42.12;99343.53;5057712;28;20035;-72
2021/08/04 02:13:59;;;;;;;11.52;6.35;;;;;;;23.64;42.29;99348.00;5070310;28;20028;-72
2021/08/04 02:16:30;;;;;;;14.07;6.95;;;;;;;23.53;42.39;99353.88;5063316;28;20435;-72
2021/08/04 02:19:11;;;;;;;13.82;6.10;;;;;;;23.38;42.73;99356.09;5070583;28;20387;-75
2021/08/04 02:21:41;;;;;;;14.65;6.68;;;;;;;23.16;43.58;99361.22;5069415;28;20021;-73
2021/08/04 02:24:07;;;;;;;11.98;6.72;;;;;;;23.00;44.32;99365.47;5069132;28;20036;-75
2021/08/04 02:26:34;;;;;;;14.68;7.80;;;;;;;22.92;44.68;99372.44;5064191;28;20116;-75
2021/08/04 02:29:01;;;;;;;13.07;7.10;;;;;;;22.99;44.58;99377.28;5069860;28;20033;-73
2021/08/04 02:31:27;;;;;;;17.92;7.28;;;;;;;23.00;44.94;99373.19;5070564;28;20102;-72
2021/08/04 02:33:53;;;;;;;10.07;7.50;;;;;;;22.98;44.84;99379.31;5063763;28;20037;-72
2021/08/04 02:36:19;;;;;;;34.03;7.63;;;;;;;23.04;44.90;99382.50;5068884;28;20106;-74
2021/08/04 02:38:45;;;;;;;16.48;7.82;;;;;;;23.14;44.61;99381.59;5070432;28;20039;-74
2021/08/04 02:41:13;;;;;;;15.82;7.30;;;;;;;23.07;44.40;99381.69;5070555;28;20502;-74
2021/08/04 02:43:38;;;;;;;24.63;8.85;;;;;;;23.19;44.29;99376.69;5068318;28;20033;-75
2021/08/04 02:46:05;;;;;;;11.38;7.63;;;;;;;23.31;43.83;99376.16;5068708;28;20446;-75
2021/08/04 02:48:31;;;;;;;9.80;6.68;;;;;;;23.37;43.75;99387.91;5070176;28;20383;-73
2021/08/04 02:51:04;;;;;;;15.57;6.82;;;;;;;23.43;43.66;99394.75;5070126;28;20050;-72
2021/08/04 02:53:29;;;;;;;15.43;7.45;;;;;;;23.68;43.27;99388.75;5067300;28;20047;-74
2021/08/04 02:55:55;;;;;;;21.83;7.15;;;;;;;23.70;42.97;99389.13;5068701;28;20112;-75
2021/08/04 02:58:21;;;;;;;18.75;7.07;;;;;;;23.53;43.36;99395.88;5070169;28;20033;-74
2021/08/04 03:00:47;;;;;;;17.65;6.88;;;;;;;23.70;43.13;99400.56;5057224;28;20076;-75
2021/08/04 03:03:12;;;;;;;20.95;6.72;;;;;;;23.74;43.03;99391.94;5066240;28;20036;-72
2021/08/04 03:05:38;;;;;;;14.43;6.72;;;;;;;23.80;43.51;99395.16;5069810;28;20111;-74
2021/08/04 03:08:04;;;;;;;13.35;7.43;;;;;;;23.96;42.62;99397.38;5055821;28;20033;-73
2021/08/04 03:10:29;;;;;;;10.32;6.55;;;;;;;24.05;42.49;99399.72;5052939;28;21353;-72
2021/08/04 03:12:55;;;;;;;20.33;7.10;;;;;;;24.09;42.01;99391.91;5055406;28;20037;-72
2021/08/04 03:15:20;;;;;;;18.25;7.57;;;;;;;24.32;41.59;99404.63;5068744;28;20115;-71
2021/08/04 03:17:46;;;;;;;34.05;9.00;;;;;;;24.42;41.85;99408.56;5068609;28;20036;-71
2021/08/04 03:20:12;;;;;;;31.00;8.70;;;;;;;24.52;41.91;99408.41;5069846;28;20025;-75
2021/08/04 03:22:49;;;;;;;36.72;7.93;;;;;;;24.51;41.94;99405.97;5066687;28;20462;-72
2021/08/04 03:25:16;;;;;;;19.95;7.25;;;;;;;24.61;41.52;99407.03;5068771;28;20405;-72
2021/08/04 03:27:41;;;;;;;20.45;8.05;;;;;;;24.58;41.56;99396.47;5061997;28;20031;-72
2021/08/04 03:30:08;;;;;;;15.40;7.15;;;;;;;24.53;41.65;99403.50;5073115;28;20390;-75
2021/08/04 03:32:33;;;;;;;18.83;6.95;;;;;;;24.21;42.54;99405.59;5066139;28;20115;-75
2021/08/04 03:34:59;;;;;;;21.15;7.85;;;;;;;24.19;42.49;99413.81;5071119;28;20101;-74
2021/08/04 03:37:24;;;;;;;21.52;7.50;;;;;;;23.91;42.80;99414.97;5071486;28;20074;-75
2021/08/04 03:39:49;;;;;;;18.40;7.82;;;;;;;23.77;43.20;99415.97;5072278;28;20028;-71
2021/08/04 03:42:16;;;;;;;15.77;7.45;;;;;;;23.82;43.20;99412.66;5068907;28;20471;-71
2021/08/04 03:44:42;;;;;;;17.10;8.10;;;;;;;23.74;43.22;99413.97;5071830;28;20034;-71
2021/08/04 03:47:08;;;;;;;13.85;7.97;;;;;;;23.65;43.21;99412.47;5070126;28;20028;-71
2021/08/04 03:49:33;;;;;;;13.25;7.10;;;;;;;23.72;42.85;99419.31;5071638;28;20032;-71
2021/08/04 03:51:59;;;;;;;10.82;7.00;;;;;;;23.83;42.04;99415.09;5069308;28;20085;-75
2021/08/04 03:54:24;;;;;;;13.55;6.60;;;;;;;23.71;42.23;99421.34;5071909;28;20035;-71
2021/08/04 03:56:50;;;;;;;11.25;7.05;;;;;;;23.73;42.24;99426.63;5071928;28;20044;-71
2021/08/04 03:59:15;;;;;;;15.73;8.18;;;;;;;23.83;42.50;99426.50;5073115;28;20032;-74
2021/08/04 04:01:41;;;;;;;16.38;7.18;;;;;;;23.86;43.28;99435.47;5068595;28;20024;-72
2021/08/04 04:04:06;;;;;;;15.57;6.97;;;;;;;23.77;42.97;99436.78;5071663;28;20036;-71
2021/08/04 04:06:31;;;;;;;9.82;6.90;;;;;;;23.54;43.52;99443.97;5073188;28;20535;-71
2021/08/04 04:08:57;;;;;;;13.38;7.38;;;;;;;23.51;43.84;99444.81;5070815;28;20066;-75
2021/08/04 04:11:22;;;;;;;15.23;7.10;;;;;;;23.26;44.30;99442.19;5073176;28;20559;-74
2021/08/04 04:13:48;;;;;;;15.77;6.60;;;;;;;23.30;44.42;99448.72;5073034;28;20082;-71
2021/08/04 04:16:13;;;;;;;17.52;7.28;;;;;;;23.23;44.53;99448.75;5073215;28;20024;-75
2021/08/04 04:18:39;;;;;;;14.85;7.63;;;;;;;23.36;44.19;99455.56;5072883;28;20024;-70
2021/08/04 04:21:05;;;;;;;14.40;6.88;;;;;;;23.51;44.01;99452.56;5066821;28;20464;-69
2021/08/04 04:23:30;;;;;;;21.33;7.68;;;;;;;23.72;43.75;99450.72;5070936;28;20063;-70
2021/08/04 04:25:56;;;;;;;16.15;6.75;;;;;;;23.53;43.85;99464.34;5071104;28;20067;-72
2021/08/04 04:28:21;;;;;;;11.70;6.72;;;;;;;23.41;44.52;99462.88;5067581;28;20091;-75
2021/08/04 04:30:47;;;;;;;13.10;7.65;;;;;;;23.47;44.45;99460.38;5072632;28;20070;-75
2021/08/04 04:33:12;;;;;;;10.30;6.85;;;;;;;23.51;44.56;99458.28;5071611;28;20032;-75
2021/08/04 04:35:38;;;;;;;19.38;7.13;;;;;;;23.60;44.24;99446.38;5071136;28;20081;-75
2021/08/04 04:38:03;;;;;;;23.88;7.40;;;;;;;23.66;44.39;99448.34;5072126;28;20052;-75
2021/08/04 04:40:28;;;;;;;19.67;7.40;;;;;;;23.78;44.11;99446.16;5059978;28;20028;-71
2021/08/04 04:42:54;;;;;;;33.83;7.45;;;;;;;23.75;44.62;99447.81;5070707;28;20039;-72
2021/08/04 04:45:21;;;;;;;16.05;7.25;;;;;;;23.76;44.16;99451.47;5070647;28;20037;-75
2021/08/04 04:47:46;;;;;;;13.05;7.00;;;;;;;23.83;44.31;99457.91;5072444;28;20082;-75
2021/08/04 04:50:12;;;;;;;13.18;6.93;;;;;;;23.73;44.59;99460.88;5072404;28;20037;-75
2021/08/04 04:52:42;;;;;;;15.50;6.75;;;;;;;23.82;44.25;99459.13;5070992;28;20025;-72
2021/08/04 04:55:08;;;;;;;18.73;7.32;;;;;;;23.86;44.19;99459.09;5072074;28;20044;-75
2021/08/04 04:57:34;;;;;;;16.38;6.65;;;;;;;24.01;44.11;99467.47;5070685;28;20476;-75
2021/08/04 04:59:59;;;;;;;16.02;6.95;;;;;;;24.07;43.88;99477.22;5072073;28;20060;-72
2021/08/04 05:02:24;;;;;;;19.23;7.28;;;;;;;24.18;43.99;99477.91;5072025;28;20029;-72
2021/08/04 05:04:50;;;;;;;12.88;7.00;;;;;;;24.33;43.83;99483.41;5071890;28;20017;-75
2021/08/04 05:07:15;;;;;;;16.60;7.13;;;;;;;24.47;43.58;99480.34;5071874;28;20476;-75
2021/08/04 05:09:41;;;;;;;16.70;7.78;;;;;;;24.64;43.28;99484.19;5071765;28;20078;-72
2021/08/04 05:12:07;;;;;;;17.25;7.47;;;;;;;24.61;42.63;99479.34;5071719;28;20036;-75
2021/08/04 05:14:32;;;;;;;16.52;7.47;;;;;;;24.54;43.02;99488.00;5071970;28;20024;-71
2021/08/04 05:16:57;;;;;;;11.93;6.82;;;;;;;24.56;43.25;99487.59;5070031;28;20032;-75
2021/08/04 05:19:23;;;;;;;15.05;7.13;;;;;;;24.70;42.86;99480.84;5070497;28;20486;-71
2021/08/04 05:21:48;;;;;;;16.60;5.97;;;;;;;24.76;42.74;99479.09;5071976;28;20024;-75
2021/08/04 05:24:14;;;;;;;15.40;7.40;;;;;;;24.91;42.92;99477.66;5071769;28;20055;-75
2021/08/04 05:26:39;;;;;;;11.10;6.40;;;;;;;25.03;42.17;99484.84;5071767;28;20025;-75
2021/08/04 05:29:05;;;;;;;58.10;8.55;;;;;;;25.13;41.43;99488.75;5071522;28;20021;-77
2021/08/04 05:31:30;;;;;;;15.98;7.68;;;;;;;25.33;41.28;99488.78;5061481;28;20033;-79
2021/08/04 05:33:56;;;;;;;18.10;7.68;;;;;;;25.40;40.49;99490.75;5068381;28;20438;-72
2021/08/04 05:36:21;;;;;;;16.92;6.90;;;;;;;25.39;40.65;99503.41;5069107;28;20079;-73
2021/08/04 05:38:47;;;;;;;24.27;6.78;;;;;;;25.43;40.89;99509.91;5069509;28;20093;-75
2021/08/04 05:41:12;;;;;;;11.95;6.13;;;;;;;25.59;40.97;99508.41;5069782;28;20027;-75
2021/08/04 06:02:27;;;;;;;12.85;6.57;;;;;;;26.68;37.89;99518.47;5148950;27;20720;-68
2021/08/04 06:04:52;;;;;;;16.65;6.65;;;;;;;26.60;37.76;99514.94;5142577;27;20054;-68
2021/08/04 06:07:18;;;;;;;15.32;7.05;;;;;;;26.76;38.20;99514.16;5143871;27;20434;-69
2021/08/04 06:09:43;;;;;;;18.60;7.25;;;;;;;26.81;38.27;99515.69;5147044;27;20034;-68
2021/08/04 06:12:11;;;;;;;13.90;6.05;;;;;;;26.72;38.18;99515.50;5148760;27;20027;-72
2021/08/04 06:14:37;;;;;;;17.58;7.90;;;;;;;26.81;38.50;99514.91;5147857;27;20411;-68
2021/08/04 06:17:03;;;;;;;21.30;7.97;;;;;;;26.86;38.90;99517.22;5147653;27;20031;-71
2021/08/04 06:19:28;;;;;;;15.38;7.35;;;;;;;26.92;38.78;99506.88;5148670;27;20019;-70
2021/08/04 06:21:54;;;;;;;15.55;7.68;;;;;;;27.07;38.82;99515.91;5149135;27;20620;-72
2021/08/04 06:24:20;;;;;;;17.73;7.63;;;;;;;27.18;39.46;99518.53;5147064;27;20027;-69
2021/08/04 06:26:46;;;;;;;12.05;7.00;;;;;;;27.18;38.89;99513.59;5147488;27;20023;-70
2021/08/04 06:29:11;;;;;;;18.02;7.15;;;;;;;27.31;38.51;99510.81;5148651;27;20019;-72
2021/08/04 06:31:37;;;;;;;19.52;8.07;;;;;;;27.41;38.79;99508.91;5148704;27;20039;-70
2021/08/04 06:34:02;;;;;;;12.45;6.72;;;;;;;27.53;39.15;99500.81;5148505;27;20031;-67
2021/08/04 06:36:28;;;;;;;13.73;7.05;;;;;;;27.64;39.43;99503.44;5148621;27;20046;-69
2021/08/04 06:38:54;;;;;;;15.90;8.35;;;;;;;27.68;39.45;99499.19;5147075;27;20023;-70
2021/08/04 06:41:19;;;;;;;17.23;9.13;;;;;;;27.81;40.21;99496.38;5146610;27;20054;-72
2021/08/04 06:43:45;;;;;;;13.60;8.40;;;;;;;27.87;41.03;99505.25;5148377;27;20022;-67
2021/08/04 06:46:13;;;;;;;20.63;8.07;;;;;;;27.90;41.18;99495.72;5148463;27;20103;-72
2021/08/04 06:48:38;;;;;;;14.52;7.88;;;;;;;27.98;41.32;99491.38;5148091;27;20023;-70
2021/08/04 06:51:04;;;;;;;15.35;8.57;;;;;;;28.08;41.08;99492.31;5146724;27;20153;-72
2021/08/04 06:53:29;;;;;;;29.55;17.35;;;;;;;28.19;41.53;99489.16;5147945;27;20039;-70
2021/08/04 06:55:55;;;;;;;43.08;20.95;;;;;;;28.21;41.94;99489.50;5148193;27;20027;-70
2021/08/04 06:58:20;;;;;;;49.08;22.70;;;;;;;28.32;41.87;99494.91;5147963;27;20035;-67
2021/08/04 07:00:46;;;;;;;44.05;21.83;;;;;;;28.43;42.19;99491.72;5146732;27;20569;-72
2021/08/04 07:03:12;;;;;;;19.23;10.43;;;;;;;28.48;41.80;99490.31;5116805;27;20031;-71
2021/08/04 07:05:37;;;;;;;39.47;17.45;;;;;;;28.57;42.40;99493.34;5129266;27;20011;-69
2021/08/04 07:08:04;;;;;;;21.77;10.90;;;;;;;28.71;42.69;99492.88;5134004;27;20031;-72
2021/08/04 07:10:29;;;;;;;70.63;31.65;;;;;;;28.83;42.83;99493.34;5133705;27;20122;-72
2021/08/04 07:12:55;;;;;;;28.58;16.75;;;;;;;28.88;42.46;99489.91;5133967;27;20119;-70
2021/08/04 07:15:20;;;;;;;18.58;10.73;;;;;;;28.94;42.82;99493.81;5133782;27;20030;-67
2021/08/04 07:17:48;;;;;;;14.30;9.43;;;;;;;29.00;43.21;99491.97;5133708;27;20015;-70
2021/08/04 07:20:16;;;;;;;20.30;10.93;;;;;;;29.00;43.06;99494.03;5133572;27;20035;-70
2021/08/04 07:22:41;;;;;;;16.77;10.05;;;;;;;29.13;42.82;99479.63;5116042;27;20051;-73
2021/08/04 07:25:08;;;;;;;25.45;9.90;;;;;;;29.20;43.66;99488.03;5118578;27;20127;-71
2021/08/04 07:27:34;;;;;;;22.23;10.40;;;;;;;29.31;42.58;99481.91;5121960;27;20052;-72
2021/08/04 07:29:59;;;;;;;14.85;9.73;;;;;;;29.33;42.78;99490.09;5124663;27;20065;-70
2021/08/04 07:32:25;;;;;;;53.15;13.57;;;;;;;29.41;43.47;99489.38;5120191;27;20058;-71
2021/08/04 07:34:50;;;;;;;21.20;11.15;;;;;;;29.39;43.13;99488.22;5112453;27;20076;-70
2021/08/04 07:37:16;;;;;;;48.63;15.27;;;;;;;29.47;43.37;99483.84;5120956;27;20027;-69
2021/08/04 07:39:41;;;;;;;36.42;11.13;;;;;;;29.57;43.19;99484.72;5115602;27;20012;-72
2021/08/04 07:42:07;;;;;;;33.10;12.85;;;;;;;29.62;42.95;99477.56;5122692;27;20024;-71
2021/08/04 07:44:32;;;;;;;20.67;10.77;;;;;;;29.60;43.59;99480.09;5125799;27;20026;-72
2021/08/04 07:46:58;;;;;;;20.42;10.82;;;;;;;29.65;43.86;99482.38;5132511;27;20042;-71
2021/08/04 07:49:23;;;;;;;21.58;10.35;;;;;;;29.74;43.75;99473.81;5129417;27;20143;-75
2021/08/04 07:51:49;;;;;;;20.02;9.80;;;;;;;29.88;43.40;99480.31;5131770;27;20499;-71
2021/08/04 07:54:14;;;;;;;14.48;9.45;;;;;;;29.96;43.01;99470.94;5130620;27;20035;-75
2021/08/04 07:56:40;;;;;;;19.48;10.32;;;;;;;29.90;42.80;99469.13;5128942;27;20026;-72
2021/08/04 07:59:06;;;;;;;18.75;10.50;;;;;;;29.97;43.29;99474.63;5125041;27;20027;-75
2021/08/04 08:01:32;;;;;;;24.92;10.65;;;;;;;30.08;42.66;99471.34;5133121;27;20051;-69
2021/08/04 08:03:58;;;;;;;19.80;10.48;;;;;;;30.14;42.43;99457.94;5134153;27;20023;-70
2021/08/04 08:06:23;;;;;;;18.00;10.85;;;;;;;30.29;41.76;99463.16;5131101;27;20491;-71
2021/08/04 08:08:49;;;;;;;11.57;9.20;;;;;;;30.30;42.23;99454.03;5130981;27;20458;-72
2021/08/04 08:11:14;;;;;;;15.13;10.38;;;;;;;30.50;41.46;99447.88;5120942;27;20023;-70
2021/08/04 08:13:40;;;;;;;25.05;10.68;;;;;;;30.42;41.19;99448.66;5121026;27;20024;-72
2021/08/04 08:16:05;;;;;;;17.55;9.88;;;;;;;30.49;41.57;99436.81;5130023;27;20080;-70
2021/08/04 08:18:31;;;;;;;23.45;10.63;;;;;;;30.54;41.59;99433.31;5131854;27;20087;-74
2021/08/04 08:20:56;;;;;;;20.90;11.02;;;;;;;30.65;42.57;99430.81;5130642;27;20065;-67
2021/08/04 08:23:22;;;;;;;19.92;10.98;;;;;;;30.77;41.45;99434.03;5132823;27;20031;-68
2021/08/04 08:25:47;;;;;;;18.92;10.38;;;;;;;30.84;41.21;99427.19;5132823;27;20055;-67
2021/08/04 08:28:15;;;;;;;21.95;10.68;;;;;;;30.95;40.95;99419.66;5131475;27;20106;-68
2021/08/04 08:30:41;;;;;;;26.92;11.30;;;;;;;31.06;40.43;99427.06;5132790;27;20465;-69
2021/08/04 08:33:07;;;;;;;201.40;184.60;;;;;;;31.14;41.17;99430.44;5131192;27;20059;-69
2021/08/04 08:35:32;;;;;;;266.80;241.68;;;;;;;31.26;41.46;99426.63;5132718;27;20034;-67
2021/08/04 08:37:58;;;;;;;1349.15;752.25;;;;;;;31.37;41.59;99417.47;5131074;27;20015;-69
2021/08/04 08:40:24;;;;;;;1716.68;675.47;;;;;;;31.51;40.72;99416.03;5132647;27;20058;-69
2021/08/04 08:42:49;;;;;;;1999.90;999.90;;;;;;;31.76;39.94;99412.00;5131014;27;20023;-69
2021/08/04 08:45:15;;;;;;;1999.90;999.90;;;;;;;31.97;39.57;99402.84;5132350;27;20027;-69
2021/08/04 08:47:42;;;;;;;1999.90;858.58;;;;;;;32.08;38.90;99412.59;5131077;27;20067;-69
2021/08/04 08:50:09;;;;;;;1999.90;999.90;;;;;;;32.16;39.24;99406.47;5130647;27;20035;-69
2021/08/04 08:52:34;;;;;;;1999.90;999.90;;;;;;;32.33;40.02;99399.00;5132339;27;20027;-69
2021/08/04 08:55:01;;;;;;;1999.90;999.90;;;;;;;32.29;38.74;99401.28;5123243;27;20034;-70
2021/08/04 08:57:27;;;;;;;399.30;255.30;;;;;;;32.27;38.46;99397.28;5130724;27;20031;-69
2021/08/04 08:59:55;;;;;;;62.25;32.60;;;;;;;32.42;38.80;99391.63;5123537;27;20052;-68
2021/08/04 09:02:21;;;;;;;20.85;11.68;;;;;;;32.44;36.88;99391.91;5112181;27;20569;-69
2021/08/04 09:05:04;;;;;;;14.40;9.50;;;;;;;32.48;37.16;99389.66;5108461;27;20031;-66
2021/08/04 09:07:38;;;;;;;16.38;10.23;;;;;;;32.57;36.43;99385.94;5114708;27;20408;-69
2021/08/04 09:10:27;;;;;;;15.10;8.98;;;;;;;32.70;35.95;99382.78;5114975;27;20522;-69
2021/08/04 09:12:58;;;;;;;18.05;9.68;;;;;;;32.56;37.16;99384.31;5110809;27;20557;-69
2021/08/04 09:15:26;;;;;;;12.63;9.90;;;;;;;32.68;37.13;99371.72;5115037;27;20046;-70
2021/08/04 09:18:03;;;;;;;16.05;9.93;;;;;;;32.82;35.59;99370.16;5110351;27;20023;-71
2021/08/04 09:20:29;;;;;;;16.80;9.63;;;;;;;32.80;36.59;99375.66;5116321;27;20110;-71
2021/08/04 09:23:02;;;;;;;31.35;9.90;;;;;;;32.75;36.38;99361.84;5121292;27;20049;-71
2021/08/04 09:25:28;;;;;;;16.92;9.20;;;;;;;32.79;36.61;99359.56;5116105;27;20473;-73
2021/08/04 09:27:57;;;;;;;16.55;8.80;;;;;;;33.02;36.16;99360.91;5100728;27;20024;-76
2021/08/04 09:30:32;;;;;;;11.73;9.32;;;;;;;33.10;36.12;99357.59;5111993;27;20126;-75
2021/08/04 09:33:26;;;;;;;17.70;9.27;;;;;;;33.38;35.52;99355.28;5128442;27;20080;-73
2021/08/04 09:35:54;;;;;;;11.07;9.07;;;;;;;33.38;35.79;99355.28;5127815;27;20043;-70
2021/08/04 09:38:21;;;;;;;17.83;8.90;;;;;;;33.47;34.69;99345.72;5129573;27;20140;-75
2021/08/04 09:41:07;;;;;;;14.88;9.15;;;;;;;33.44;34.73;99344.59;5129105;27;20034;-75
2021/08/04 09:43:33;;;;;;;15.15;8.85;;;;;;;33.52;35.45;99344.22;5106736;27;20031;-74
2021/08/04 09:45:58;;;;;;;14.60;8.90;;;;;;;33.56;35.01;99334.03;5128163;27;20560;-73
2021/08/04 09:48:25;;;;;;;167.60;20.13;;;;;;;33.68;34.23;99332.16;5129165;27;20495;-72
2021/08/04 09:51:00;;;;;;;15.32;8.18;;;;;;;33.76;33.12;99326.75;5129303;27;20031;-71
2021/08/04 09:53:31;;;;;;;15.15;8.63;;;;;;;33.66;33.07;99328.94;5128402;28;20027;-70
2021/08/04 09:56:17;;;;;;;14.70;7.97;;;;;;;33.74;33.02;99318.53;5128234;28;20032;-71
2021/08/04 09:58:53;;;;;;;12.15;8.07;;;;;;;33.79;33.14;99325.75;5105402;28;20106;-71
2021/08/04 10:01:22;;;;;;;24.13;8.65;;;;;;;33.82;34.13;99318.94;5131301;27;20062;-73
2021/08/04 10:04:05;;;;;;;11.60;7.22;;;;;;;33.73;32.56;99316.94;5099510;28;20031;-68
2021/08/04 10:09:36;;;;;;;11.57;6.78;;;;;;;33.98;32.39;99306.03;5102554;28;20086;-71
2021/08/04 10:12:03;;;;;;;13.23;7.97;;;;;;;34.09;32.40;99308.34;5097245;28;20089;-68
2021/08/04 10:14:28;;;;;;;12.23;8.38;;;;;;;34.12;32.05;99295.72;5116579;27;20023;-69
2021/08/04 10:16:54;;;;;;;16.65;7.60;;;;;;;34.10;32.60;99286.72;5124136;27;20403;-71
2021/08/04 10:19:20;;;;;;;11.18;8.05;;;;;;;34.47;31.83;99278.81;5125101;28;20015;-69
2021/08/04 10:21:48;;;;;;;14.73;7.43;;;;;;;34.37;30.67;99281.84;5104797;27;20031;-69
2021/08/04 10:24:14;;;;;;;15.90;7.45;;;;;;;34.41;30.64;99275.81;5104301;28;20035;-72
2021/08/04 10:26:40;;;;;;;21.17;8.43;;;;;;;34.23;30.69;99271.88;5103670;28;20032;-69
2021/08/04 10:29:08;;;;;;;13.70;7.90;;;;;;;34.43;29.47;99267.41;5105464;28;20024;-69
2021/08/04 10:31:34;;;;;;;14.55;7.65;;;;;;;34.49;28.97;99265.38;5117115;28;20042;-68
2021/08/04 10:34:01;;;;;;;11.45;7.88;;;;;;;34.79;28.83;99270.25;5127893;28;20526;-69
2021/08/04 10:36:33;;;;;;;17.13;7.05;;;;;;;34.69;28.64;99258.81;5129308;27;20031;-68
2021/08/04 10:39:04;;;;;;;13.15;7.78;;;;;;;34.81;29.53;99256.03;5132720;27;20115;-69
2021/08/04 10:41:29;;;;;;;12.45;6.80;;;;;;;34.86;29.33;99252.41;5131198;27;20031;-69
2021/08/04 10:44:06;;;;;;;10.10;7.00;;;;;;;35.12;28.65;99254.56;5132935;27;20049;-69
2021/08/04 10:46:32;;;;;;;18.13;6.80;;;;;;;35.03;28.38;99251.78;5118130;27;20023;-69
2021/08/04 10:48:57;;;;;;;9.63;6.38;;;;;;;35.05;27.67;99238.38;5131747;27;20026;-68
2021/08/04 10:51:23;;;;;;;9.82;6.93;;;;;;;35.13;27.00;99242.44;5127640;27;20115;-69
2021/08/04 10:54:01;;;;;;;14.38;6.43;;;;;;;35.22;27.30;99238.56;5130408;27;20015;-69
2021/08/04 10:56:32;;;;;;;13.05;6.70;;;;;;;35.34;27.15;99239.44;5120599;27;20040;-70
2021/08/04 10:59:24;;;;;;;17.38;5.35;;;;;;;35.34;25.82;99230.72;5129036;27;20019;-68
2021/08/04 11:01:55;;;;;;;13.77;6.32;;;;;;;35.52;25.73;99226.66;5112460;27;20070;-68
2021/08/04 11:04:29;;;;;;;10.80;6.05;;;;;;;35.67;26.05;99225.75;5121216;27;20065;-68
2021/08/04 11:07:20;;;;;;;15.73;6.38;;;;;;;35.74;27.39;99224.50;5117620;27;20110;-68
2021/08/04 11:09:51;;;;;;;18.85;6.72;;;;;;;35.89;27.72;99224.31;5106294;27;20019;-68
2021/08/04 11:12:35;;;;;;;16.75;7.53;;;;;;;35.74;26.37;99224.50;5117921;27;20042;-68
2021/08/04 11:15:02;;;;;;;13.63;5.15;;;;;;;35.77;24.77;99220.53;5099556;27;20085;-68
2021/08/04 11:17:29;;;;;;;17.75;6.63;;;;;;;35.87;24.78;99210.31;5114029;27;20034;-68
2021/08/04 11:20:08;;;;;;;18.20;5.40;;;;;;;35.97;25.06;99217.50;5115347;27;20043;-68
2021/08/04 11:22:39;;;;;;;18.85;7.07;;;;;;;36.06;25.49;99218.63;5106235;27;20087;-68
2021/08/04 11:25:05;;;;;;;20.15;7.20;;;;;;;36.17;25.28;99212.88;5114380;27;20035;-68
2021/08/04 11:27:33;;;;;;;25.42;6.50;;;;;;;36.30;25.09;99217.44;5114972;27;20027;-68
2021/08/04 11:29:59;;;;;;;23.92;6.65;;;;;;;36.21;24.92;99209.72;5113202;28;20034;-68
2021/08/04 11:32:29;;;;;;;14.50;6.78;;;;;;;36.42;25.34;99204.53;5112129;27;20543;-69
2021/08/04 11:34:56;;;;;;;19.08;5.63;;;;;;;36.42;24.40;99198.72;5106450;27;20023;-69
2021/08/04 11:37:23;;;;;;;16.58;6.13;;;;;;;36.50;23.99;99202.72;5132485;27;20039;-68
2021/08/04 11:39:56;;;;;;;18.42;6.60;;;;;;;36.73;24.53;99196.19;5130683;27;20503;-68
2021/08/04 11:42:22;;;;;;;13.05;5.40;;;;;;;36.75;23.92;99194.34;5130294;27;20452;-68
2021/08/04 11:44:48;;;;;;;10.85;5.90;;;;;;;36.95;23.17;99186.72;5129124;27;20080;-68
2021/08/04 11:47:14;;;;;;;11.75;6.28;;;;;;;36.71;23.93;99184.28;5127854;27;20098;-68
2021/08/04 11:49:46;;;;;;;22.17;7.10;;;;;;;36.79;23.63;99182.47;5124396;27;20089;-68